Time;durP1;ratioP1;P1;durP2;ratioP2;P2;SDS_P1;SDS_P2;PMS_P1;PMS_P2;Temp;Humidity;BMP_temperature;BMP_pressure;BME280_temperature;BME280_humidity;BME280_pressure;Samples;Min_cycle;Max_cycle;Signal;HPM_P1;HPM_P2
2022/05/11 00:01:29;;;;;;;5.00;4.03;;;19.50;99.90;;;;;;7393218;19;20143;-77
2022/05/11 00:03:57;;;;;;;4.88;4.38;;;19.40;99.90;;;;;;7399677;19;20161;-84
2022/05/11 00:06:25;;;;;;;5.40;4.63;;;19.30;99.90;;;;;;7399208;19;20165;-76
2022/05/11 00:08:56;;;;;;;5.72;4.20;;;19.30;99.90;;;;;;7394746;19;20179;-77
2022/05/11 00:11:22;;;;;;;4.63;4.15;;;19.20;99.90;;;;;;7397914;19;20139;-85
2022/05/11 00:13:48;;;;;;;5.72;3.83;;;19.20;99.90;;;;;;7393483;19;20135;-77
2022/05/11 00:16:14;;;;;;;4.85;4.28;;;19.20;99.90;;;;;;7399172;19;20135;-75
2022/05/11 00:18:40;;;;;;;5.85;4.30;;;19.20;99.90;;;;;;7392439;19;20607;-86
2022/05/11 00:21:07;;;;;;;4.28;3.80;;;19.30;99.90;;;;;;7393575;19;20163;-77
2022/05/11 00:23:33;;;;;;;4.78;4.20;;;19.20;99.90;;;;;;7397643;19;20564;-86
2022/05/11 00:25:59;;;;;;;4.80;4.28;;;19.20;99.90;;;;;;7396126;19;20142;-83
2022/05/11 00:28:25;;;;;;;5.35;3.72;;;19.20;99.90;;;;;;7390478;19;21008;-82
2022/05/11 00:30:51;;;;;;;4.13;3.72;;;19.20;99.90;;;;;;7391952;19;20198;-75
2022/05/11 00:33:17;;;;;;;4.32;3.92;;;19.30;99.90;;;;;;7398731;19;20170;-88
2022/05/11 00:35:47;;;;;;;5.05;3.80;;;19.20;99.90;;;;;;7393994;19;20139;-77
2022/05/11 00:38:15;;;;;;;3.78;3.20;;;19.10;99.90;;;;;;7390747;19;20142;-76
2022/05/11 00:40:58;;;;;;;4.15;3.75;;;19.10;99.90;;;;;;7391826;19;20139;-87
2022/05/11 00:43:33;;;;;;;4.45;3.92;;;19.10;99.90;;;;;;7389358;19;20561;-84
2022/05/11 00:46:10;;;;;;;4.65;4.15;;;19.20;99.90;;;;;;7391363;19;20146;-77
2022/05/11 00:51:35;;;;;;;5.20;3.78;;;19.40;99.90;;;;;;7397177;19;20130;-77
2022/05/11 00:54:03;;;;;;;3.15;2.85;;;19.50;99.90;;;;;;7392442;19;20155;-85
2022/05/11 00:56:30;;;;;;;3.83;3.40;;;19.60;99.90;;;;;;7393335;19;20152;-85
2022/05/11 00:59:04;;;;;;;3.92;3.38;;;19.60;99.90;;;;;;7395124;19;20170;-77
2022/05/11 01:01:31;;;;;;;5.40;3.08;;;19.60;99.90;;;;;;7395190;19;20166;-84
2022/05/11 01:04:14;;;;;;;4.57;3.63;;;19.60;99.90;;;;;;7392172;19;20142;-85
2022/05/11 01:06:41;;;;;;;3.50;3.20;;;19.70;99.90;;;;;;7391182;19;20131;-85
2022/05/11 01:09:10;;;;;;;3.97;3.58;;;19.70;99.90;;;;;;7391199;19;20165;-87
2022/05/11 01:11:51;;;;;;;4.43;3.63;;;19.70;99.90;;;;;;7394072;19;20198;-86
2022/05/11 01:14:23;;;;;;;5.47;3.50;;;19.60;99.90;;;;;;7389907;19;20162;-85
2022/05/11 01:16:49;;;;;;;6.15;3.90;;;19.60;99.90;;;;;;7391462;19;20164;-84
2022/05/11 01:19:35;;;;;;;9.00;4.00;;;19.50;99.90;;;;;;7407750;19;20447;-87
2022/05/11 01:22:14;;;;;;;4.32;3.60;;;19.50;99.90;;;;;;7400258;19;20122;-83
2022/05/11 01:24:45;;;;;;;6.57;3.65;;;19.10;99.90;;;;;;7392036;19;20505;-84
2022/05/11 01:27:24;;;;;;;3.92;3.53;;;19.10;99.90;;;;;;7389931;19;20139;-77
2022/05/11 01:29:51;;;;;;;4.57;3.20;;;19.10;99.90;;;;;;7389213;19;20174;-85
2022/05/11 01:32:22;;;;;;;5.53;3.42;;;19.20;99.90;;;;;;7390903;19;20131;-85
2022/05/11 01:34:52;;;;;;;4.25;3.47;;;19.20;99.90;;;;;;7393336;19;20151;-87
2022/05/11 01:37:19;;;;;;;3.47;3.15;;;19.00;99.90;;;;;;7390106;19;20138;-86
2022/05/11 01:39:45;;;;;;;4.18;3.40;;;19.00;99.90;;;;;;7393598;19;20127;-85
2022/05/11 01:42:11;;;;;;;4.95;3.78;;;19.00;99.90;;;;;;7389716;19;20517;-83
2022/05/11 01:44:38;;;;;;;3.63;3.25;;;19.00;99.90;;;;;;7390045;19;20155;-77
2022/05/11 01:47:04;;;;;;;3.75;3.45;;;18.90;99.90;;;;;;7387937;19;20138;-78
2022/05/11 01:49:32;;;;;;;3.40;3.10;;;18.90;99.90;;;;;;7387879;19;20152;-78
2022/05/11 01:51:58;;;;;;;3.50;3.20;;;18.90;99.90;;;;;;7394571;19;20775;-86
2022/05/11 01:54:25;;;;;;;3.50;3.20;;;18.90;99.90;;;;;;7389292;19;20150;-78
2022/05/11 01:56:51;;;;;;;3.33;3.03;;;18.90;99.90;;;;;;7389199;19;20127;-83
2022/05/11 01:59:17;;;;;;;3.45;3.15;;;18.90;99.90;;;;;;7391007;19;20139;-87
2022/05/11 02:01:43;;;;;;;3.42;3.13;;;18.90;99.90;;;;;;7389992;19;20403;-87
2022/05/11 02:09:41;;;;;;;4.93;3.17;;;18.90;99.90;;;;;;7390224;19;20500;-78
2022/05/11 02:12:10;;;;;;;3.65;3.15;;;18.90;99.90;;;;;;7389326;19;20145;-85
2022/05/11 02:14:36;;;;;;;3.40;3.10;;;18.90;99.90;;;;;;7386420;19;20150;-82
2022/05/11 02:17:02;;;;;;;3.17;2.72;;;18.80;99.90;;;;;;7387283;19;20134;-77
2022/05/11 02:19:29;;;;;;;4.57;3.15;;;18.80;99.90;;;;;;7391280;19;20801;-83
2022/05/11 02:21:55;;;;;;;3.42;3.00;;;18.80;99.90;;;;;;7388004;19;20143;-77
2022/05/11 02:24:21;;;;;;;3.50;3.20;;;18.80;99.90;;;;;;7388822;19;20139;-78
2022/05/11 02:26:47;;;;;;;3.15;2.67;;;18.90;99.90;;;;;;7391543;19;20153;-85
2022/05/11 02:29:13;;;;;;;3.33;3.03;;;18.70;99.90;;;;;;7390605;19;20171;-77
2022/05/11 02:31:39;;;;;;;3.80;3.40;;;18.80;99.90;;;;;;7392102;19;20131;-77
2022/05/11 02:34:06;;;;;;;4.28;3.10;;;18.80;99.90;;;;;;7387293;19;20501;-77
2022/05/11 02:36:35;;;;;;;3.58;3.28;;;18.80;99.90;;;;;;7390182;19;20157;-85
2022/05/11 02:39:01;;;;;;;4.88;3.10;;;18.80;99.90;;;;;;7389844;19;20508;-77
2022/05/11 02:41:27;;;;;;;3.55;3.25;;;18.80;99.90;;;;;;7390391;19;20134;-77
2022/05/11 02:43:52;;;;;;;3.47;2.92;;;18.80;99.90;;;;;;7383939;19;20186;-85
2022/05/11 02:46:18;;;;;;;4.95;3.20;;;18.80;99.90;;;;;;7387606;19;20135;-85
2022/05/11 02:48:44;;;;;;;2.95;2.75;;;18.70;99.90;;;;;;7385284;19;20184;-78
2022/05/11 02:51:10;;;;;;;3.20;2.90;;;18.70;99.90;;;;;;7391650;19;20138;-85
2022/05/11 02:53:36;;;;;;;3.78;2.70;;;18.70;99.90;;;;;;7395294;19;20179;-86
2022/05/11 02:56:03;;;;;;;3.05;2.75;;;18.80;99.90;;;;;;7386853;19;20162;-86
2022/05/11 02:58:32;;;;;;;4.43;3.03;;;18.70;99.90;;;;;;7388508;19;20530;-85
2022/05/11 03:01:00;;;;;;;3.08;2.78;;;18.70;99.90;;;;;;7387169;19;20127;-85
2022/05/11 03:03:33;;;;;;;3.20;2.90;;;18.70;99.90;;;;;;7387534;19;20135;-85
2022/05/11 03:06:01;;;;;;;3.67;3.30;;;18.70;99.90;;;;;;7388806;19;20141;-77
2022/05/11 03:08:29;;;;;;;3.10;2.80;;;18.80;99.90;;;;;;7388158;19;20135;-78
2022/05/11 03:10:56;;;;;;;3.15;2.85;;;18.80;99.90;;;;;;7388097;19;20134;-84
2022/05/11 03:13:22;;;;;;;3.63;3.33;;;18.80;99.90;;;;;;7386821;19;20138;-86
2022/05/11 03:15:48;;;;;;;3.15;2.58;;;18.90;99.90;;;;;;7386116;19;20155;-77
2022/05/11 03:18:14;;;;;;;3.20;2.90;;;18.80;99.90;;;;;;7388859;19;20158;-78
2022/05/11 03:20:40;;;;;;;3.55;3.20;;;18.80;99.90;;;;;;7385855;19;20126;-77
2022/05/11 03:23:05;;;;;;;3.35;3.05;;;18.80;99.90;;;;;;7385316;19;20154;-77
2022/05/11 03:25:31;;;;;;;3.28;2.97;;;18.80;99.90;;;;;;7386693;19;20135;-85
2022/05/11 03:27:57;;;;;;;3.65;3.22;;;18.80;99.90;;;;;;7386362;19;20138;-86
2022/05/11 03:30:23;;;;;;;3.75;3.15;;;18.80;99.90;;;;;;7383370;19;20198;-86
2022/05/11 03:35:34;;;;;;;3.10;2.75;;;18.80;99.90;;;;;;7392435;19;20150;-87
2022/05/11 03:38:00;;;;;;;3.30;3.00;;;18.70;99.90;;;;;;7392561;19;20157;-85
2022/05/11 03:40:25;;;;;;;3.05;2.75;;;18.80;99.90;;;;;;7408939;19;20131;-87
2022/05/11 03:42:51;;;;;;;5.03;3.15;;;18.70;99.90;;;;;;7394148;19;20468;-78
2022/05/11 03:45:21;;;;;;;3.30;3.00;;;18.70;99.90;;;;;;7391955;19;20151;-77
2022/05/11 03:47:47;;;;;;;3.85;3.05;;;18.80;99.90;;;;;;7393495;19;20142;-78
2022/05/11 03:50:16;;;;;;;4.82;2.90;;;19.00;99.90;;;;;;7394199;19;20135;-84
2022/05/11 03:52:42;;;;;;;3.40;3.10;;;19.00;99.90;;;;;;7394502;19;20139;-84
2022/05/11 03:55:10;;;;;;;4.47;3.13;;;19.00;99.90;;;;;;7389493;19;20190;-78
2022/05/11 03:57:38;;;;;;;4.07;3.17;;;18.70;99.90;;;;;;7390641;19;20138;-77
2022/05/11 04:00:08;;;;;;;4.30;3.47;;;18.70;99.90;;;;;;7391777;19;20478;-77
2022/05/11 04:02:35;;;;;;;4.18;3.35;;;18.60;99.90;;;;;;7397482;19;20615;-85
2022/05/11 04:05:02;;;;;;;4.47;3.08;;;18.50;99.90;;;;;;7394450;19;20133;-85
2022/05/11 04:07:28;;;;;;;4.40;3.58;;;18.40;99.90;;;;;;7392187;19;20135;-77
2022/05/11 04:09:54;;;;;;;3.35;3.05;;;18.40;99.90;;;;;;7392081;19;20150;-84
2022/05/11 04:12:19;;;;;;;4.22;3.35;;;18.50;99.90;;;;;;7395896;19;20126;-76
2022/05/11 04:14:45;;;;;;;6.25;3.30;;;18.30;99.90;;;;;;7390228;19;20455;-79
2022/05/11 04:17:12;;;;;;;4.15;3.25;;;18.20;99.90;;;;;;7393904;19;20126;-77
2022/05/11 04:19:38;;;;;;;3.58;3.10;;;18.30;99.90;;;;;;7391230;19;20131;-77
2022/05/11 04:22:04;;;;;;;4.28;3.25;;;18.30;99.90;;;;;;7395609;19;20134;-77
2022/05/11 04:24:29;;;;;;;6.03;3.80;;;18.30;99.90;;;;;;7392084;19;20138;-78
2022/05/11 04:26:55;;;;;;;5.22;3.63;;;18.40;99.90;;;;;;7390859;19;20885;-77
2022/05/11 04:29:21;;;;;;;4.00;3.60;;;18.40;99.90;;;;;;7391141;19;20147;-87
2022/05/11 04:31:53;;;;;;;4.65;3.78;;;18.50;99.90;;;;;;7394473;19;20139;-88
2022/05/11 04:34:19;;;;;;;4.00;3.38;;;18.60;99.90;;;;;;7389208;19;20137;-77
2022/05/11 04:36:45;;;;;;;6.45;3.70;;;18.80;99.90;;;;;;7391610;19;20206;-77
2022/05/11 04:39:11;;;;;;;3.97;3.58;;;18.80;99.90;;;;;;7389865;19;20138;-84
2022/05/11 04:41:37;;;;;;;6.78;3.80;;;18.70;99.90;;;;;;7392943;19;20150;-85
2022/05/11 04:44:03;;;;;;;5.22;3.25;;;18.60;99.90;;;;;;7396287;19;20204;-87
2022/05/11 04:46:28;;;;;;;4.32;3.75;;;18.60;99.90;;;;;;7391822;19;20134;-86
2022/05/11 04:49:16;;;;;;;4.50;3.20;;;18.80;99.90;;;;;;7390442;19;20198;-84
2022/05/11 04:51:43;;;;;;;3.90;3.50;;;18.90;99.90;;;;;;7390298;19;20509;-78
2022/05/11 04:54:09;;;;;;;5.90;3.15;;;18.90;99.90;;;;;;7389941;19;20146;-82
2022/05/11 04:56:37;;;;;;;4.15;3.22;;;18.80;99.90;;;;;;7391511;19;20222;-82
2022/05/11 04:59:07;;;;;;;3.80;3.15;;;18.70;99.90;;;;;;7390057;19;20629;-78
2022/05/11 05:01:36;;;;;;;5.15;3.75;;;18.50;99.90;;;;;;7388955;19;20166;-79
2022/05/11 05:04:03;;;;;;;4.28;3.65;;;18.40;99.90;;;;;;7389702;19;20134;-85
2022/05/11 05:06:33;;;;;;;4.07;3.17;;;18.50;99.90;;;;;;7389154;19;20153;-79
2022/05/11 05:09:06;;;;;;;5.80;3.40;;;18.50;99.90;;;;;;7395730;19;20139;-79
2022/05/11 05:11:33;;;;;;;5.53;3.83;;;18.40;99.90;;;;;;7396592;19;20644;-85
2022/05/11 05:14:00;;;;;;;4.45;3.15;;;18.30;99.90;;;;;;7390210;19;20134;-78
2022/05/11 05:16:25;;;;;;;3.72;3.25;;;18.60;99.90;;;;;;7389013;19;20164;-80
2022/05/11 05:18:51;;;;;;;3.20;2.90;;;18.70;99.90;;;;;;7391218;19;20150;-78
2022/05/11 05:21:17;;;;;;;3.38;3.08;;;18.90;99.90;;;;;;7395876;19;20162;-83
2022/05/11 05:23:43;;;;;;;4.25;3.25;;;19.10;99.90;;;;;;7390890;19;20138;-77
2022/05/11 05:26:09;;;;;;;3.90;3.45;;;19.00;99.90;;;;;;7390336;19;20909;-77
2022/05/11 05:31:21;;;;;;;3.88;3.50;;;18.80;99.90;;;;;;7393671;19;20250;-77
2022/05/11 05:33:48;;;;;;;8.50;3.33;;;18.70;99.90;;;;;;7405851;19;20134;-78
2022/05/11 05:36:14;;;;;;;6.22;3.17;;;18.70;99.90;;;;;;7403825;19;20152;-78
2022/05/11 05:38:42;;;;;;;6.63;3.22;;;18.90;99.90;;;;;;7393633;19;20134;-82
2022/05/11 05:41:11;;;;;;;4.72;3.75;;;18.80;99.90;;;;;;7392077;19;20150;-76
2022/05/11 05:43:38;;;;;;;4.63;3.35;;;18.90;99.90;;;;;;7395889;19;20142;-78
2022/05/11 05:46:04;;;;;;;3.33;3.00;;;18.90;99.90;;;;;;7394518;19;20174;-78
2022/05/11 05:48:30;;;;;;;4.45;3.40;;;18.90;99.90;;;;;;7390739;19;20214;-76
2022/05/11 05:51:07;;;;;;;4.18;3.40;;;19.00;99.90;;;;;;7390922;19;20142;-78
2022/05/11 05:53:34;;;;;;;4.65;3.65;;;19.10;99.90;;;;;;7392117;19;20408;-77
2022/05/11 05:55:59;;;;;;;4.88;3.20;;;19.00;99.90;;;;;;7396289;19;20146;-75
2022/05/11 05:58:25;;;;;;;3.50;3.15;;;19.00;99.90;;;;;;7389754;19;20126;-76
2022/05/11 06:00:51;;;;;;;4.55;2.90;;;19.10;99.90;;;;;;7387604;19;20154;-78
2022/05/11 06:03:26;;;;;;;5.63;3.00;;;19.20;99.90;;;;;;7385515;19;20170;-78
2022/05/11 06:05:52;;;;;;;5.68;3.83;;;19.40;99.90;;;;;;7387696;19;20219;-77
2022/05/11 06:08:18;;;;;;;3.35;2.95;;;19.30;99.90;;;;;;7387364;19;20138;-79
2022/05/11 06:10:45;;;;;;;3.70;2.72;;;19.30;99.90;;;;;;7386741;19;20147;-77
2022/05/11 06:13:14;;;;;;;4.18;3.28;;;19.40;99.90;;;;;;7389194;19;20531;-78
2022/05/11 06:15:41;;;;;;;5.88;4.97;;;19.60;99.90;;;;;;7394567;19;20138;-78
2022/05/11 06:18:11;;;;;;;4.45;3.30;;;19.60;99.90;;;;;;7396200;19;20134;-76
2022/05/11 06:20:38;;;;;;;4.05;2.90;;;19.80;99.90;;;;;;7388597;19;20502;-76
2022/05/11 06:23:05;;;;;;;4.90;3.15;;;20.30;99.90;;;;;;7390534;19;20161;-75
2022/05/11 06:25:31;;;;;;;4.38;2.72;;;21.50;99.90;;;;;;7390764;19;20210;-74
2022/05/11 06:27:58;;;;;;;3.67;3.30;;;22.80;99.90;;;;;;7384301;19;20597;-75
2022/05/11 06:30:25;;;;;;;6.55;3.25;;;24.20;99.90;;;;;;7384018;19;20597;-78
2022/05/11 06:32:51;;;;;;;4.55;2.95;;;25.50;99.90;;;;;;7390425;19;20131;-76
2022/05/11 06:35:17;;;;;;;3.15;2.85;;;25.50;99.90;;;;;;7391065;19;20130;-75
2022/05/11 06:37:46;;;;;;;10.60;2.70;;;26.20;99.90;;;;;;7384761;19;20174;-79
2022/05/11 06:40:14;;;;;;;4.65;2.65;;;26.60;99.10;;;;;;7386841;19;20500;-75
2022/05/11 06:42:41;;;;;;;4.18;2.75;;;26.40;98.30;;;;;;7390663;19;20134;-79
2022/05/11 06:45:08;;;;;;;2.90;2.60;;;27.30;97.60;;;;;;7386395;19;20143;-79
2022/05/11 06:47:35;;;;;;;3.30;3.00;;;27.50;96.80;;;;;;7385724;19;20150;-76
2022/05/11 06:50:01;;;;;;;3.78;3.38;;;27.40;96.80;;;;;;7384759;19;20154;-79
2022/05/11 06:52:27;;;;;;;3.50;2.80;;;27.60;96.40;;;;;;7385375;19;20158;-74
2022/05/11 07:00:28;;;;;;;4.30;2.40;;;26.90;96.10;;;;;;7385527;19;20134;-79
2022/05/11 07:02:55;;;;;;;3.08;2.58;;;26.90;96.40;;;;;;7390192;19;20138;-78
2022/05/11 07:05:24;;;;;;;3.10;2.80;;;26.70;96.30;;;;;;7385666;19;20146;-75
2022/05/11 07:07:51;;;;;;;2.67;2.42;;;27.00;96.00;;;;;;7384334;19;20126;-74
2022/05/11 07:10:17;;;;;;;2.92;2.40;;;27.10;95.50;;;;;;7384267;19;20568;-75
2022/05/11 07:12:46;;;;;;;4.15;2.40;;;27.20;95.70;;;;;;7390318;19;20123;-80
2022/05/11 07:15:14;;;;;;;3.90;2.97;;;27.10;95.50;;;;;;7383075;19;20234;-76
2022/05/11 07:17:45;;;;;;;2.80;2.50;;;26.90;95.60;;;;;;7387993;19;20641;-79
2022/05/11 07:20:15;;;;;;;3.55;2.70;;;26.80;95.70;;;;;;7384437;19;20147;-75
2022/05/11 07:22:41;;;;;;;3.20;2.38;;;27.40;95.30;;;;;;7384852;19;20134;-78
2022/05/11 07:25:10;;;;;;;3.17;2.58;;;27.40;94.80;;;;;;7383976;19;20142;-79
2022/05/11 07:27:36;;;;;;;2.53;2.15;;;27.50;94.90;;;;;;7384181;19;20126;-74
2022/05/11 07:30:04;;;;;;;2.67;2.10;;;27.40;94.50;;;;;;7382390;19;20170;-75
2022/05/11 07:32:30;;;;;;;4.00;3.65;;;27.20;94.70;;;;;;7386728;19;20139;-75
2022/05/11 07:34:56;;;;;;;3.25;2.95;;;27.80;94.30;;;;;;7388734;19;20447;-75
2022/05/11 07:37:22;;;;;;;5.43;3.03;;;28.20;94.10;;;;;;7386685;19;20208;-74
2022/05/11 07:39:48;;;;;;;2.97;2.30;;;28.10;93.60;;;;;;7383579;19;20143;-74
2022/05/11 07:42:14;;;;;;;2.88;2.40;;;28.30;93.10;;;;;;7387993;19;20622;-80
2022/05/11 07:44:41;;;;;;;2.95;2.65;;;28.50;93.00;;;;;;7386180;19;20138;-75
2022/05/11 07:47:10;;;;;;;2.53;1.95;;;28.70;92.60;;;;;;7385141;19;20145;-75
2022/05/11 07:49:37;;;;;;;2.72;2.00;;;28.80;92.60;;;;;;7384739;19;20135;-74
2022/05/11 07:52:04;;;;;;;2.47;2.28;;;29.10;92.20;;;;;;7382993;19;20181;-79
2022/05/11 07:54:31;;;;;;;2.63;2.40;;;29.40;91.60;;;;;;7390590;19;20147;-77
2022/05/11 07:59:56;;;;;;;2.85;2.20;;;29.40;91.30;;;;;;7384885;19;20477;-81
2022/05/11 08:02:33;;;;;;;2.10;1.90;;;28.90;91.00;;;;;;7385079;19;20530;-79
2022/05/11 08:05:02;;;;;;;3.28;2.17;;;29.10;90.30;;;;;;7384248;19;20244;-79
2022/05/11 08:07:40;;;;;;;2.40;2.17;;;29.20;90.30;;;;;;7384460;19;20741;-81
2022/05/11 08:10:09;;;;;;;7.20;5.05;;;29.20;90.00;;;;;;7384873;19;20130;-74
2022/05/11 08:12:35;;;;;;;4.63;2.05;;;29.00;90.70;;;;;;7383186;19;20511;-80
2022/05/11 08:15:02;;;;;;;4.57;1.90;;;29.20;90.20;;;;;;7383846;19;20389;-78
2022/05/11 08:17:33;;;;;;;3.30;2.40;;;29.40;90.20;;;;;;7383258;19;20231;-72
2022/05/11 08:19:59;;;;;;;2.88;1.90;;;29.60;89.60;;;;;;7384360;19;20137;-80
2022/05/11 08:22:27;;;;;;;2.53;2.10;;;29.10;89.40;;;;;;7392017;19;20138;-73
2022/05/11 08:24:54;;;;;;;2.22;1.80;;;29.20;90.00;;;;;;7389659;19;20126;-80
2022/05/11 08:27:23;;;;;;;2.38;1.90;;;29.40;89.20;;;;;;7390163;19;20127;-73
2022/05/11 08:35:19;;;;;;;2.05;1.88;;;29.20;88.10;;;;;;7388501;19;20154;-80
2022/05/11 08:37:45;;;;;;;2.50;1.75;;;29.30;87.50;;;;;;7390438;19;20582;-74
2022/05/11 08:40:21;;;;;;;2.50;1.60;;;29.20;88.20;;;;;;7389117;19;20580;-76
2022/05/11 08:42:47;;;;;;;1.88;1.73;;;29.10;87.50;;;;;;7394683;19;20218;-77
2022/05/11 08:45:13;;;;;;;3.45;1.70;;;29.30;87.50;;;;;;7388105;19;20460;-74
2022/05/11 08:47:47;;;;;;;2.72;2.17;;;29.00;86.70;;;;;;7389319;19;20166;-73
2022/05/11 08:50:23;;;;;;;2.30;2.10;;;29.10;87.80;;;;;;7392586;19;20134;-81
2022/05/11 08:53:06;;;;;;;2.13;1.92;;;29.30;87.50;;;;;;7389281;19;20130;-79
2022/05/11 08:55:50;;;;;;;2.55;2.03;;;29.20;86.40;;;;;;7388425;19;20221;-75
2022/05/11 08:58:23;;;;;;;3.55;1.98;;;29.20;88.40;;;;;;7391495;19;20172;-76
2022/05/11 09:00:52;;;;;;;3.95;1.98;;;28.80;86.00;;;;;;7388597;19;20577;-76
2022/05/11 09:03:30;;;;;;;2.33;2.10;;;29.00;86.80;;;;;;7387418;19;20135;-76
2022/05/11 09:05:57;;;;;;;3.90;2.00;;;29.10;86.90;;;;;;7387454;19;20512;-74
2022/05/11 09:08:24;;;;;;;3.90;2.58;;;29.20;86.40;;;;;;7391726;19;20151;-72
2022/05/11 09:10:50;;;;;;;2.53;2.10;;;29.20;86.20;;;;;;7389958;19;20166;-78
2022/05/11 09:13:18;;;;;;;3.13;2.20;;;29.40;86.70;;;;;;7388324;19;20131;-74
2022/05/11 09:15:55;;;;;;;3.95;2.42;;;29.20;86.90;;;;;;7386305;19;20206;-74
2022/05/11 09:18:30;;;;;;;2.35;2.15;;;29.30;87.60;;;;;;7388551;19;20130;-76
2022/05/11 09:20:59;;;;;;;4.20;2.13;;;29.00;87.60;;;;;;7389045;19;20218;-74
2022/05/11 09:23:27;;;;;;;3.85;2.40;;;28.90;86.50;;;;;;7388857;19;20577;-78
2022/05/11 09:26:03;;;;;;;4.32;3.92;;;28.80;87.70;;;;;;7387934;19;20496;-75
2022/05/11 09:28:31;;;;;;;3.17;2.28;;;28.80;87.20;;;;;;7386409;19;20607;-77
2022/05/11 09:31:02;;;;;;;3.42;2.22;;;28.90;87.60;;;;;;7388599;19;20505;-74
2022/05/11 09:33:40;;;;;;;4.47;2.70;;;28.90;88.70;;;;;;7390740;19;20127;-77
2022/05/11 09:36:07;;;;;;;3.15;2.67;;;29.10;88.60;;;;;;7387163;19;20591;-77
2022/05/11 09:38:40;;;;;;;4.20;2.45;;;29.00;88.40;;;;;;7386333;19;20131;-74
2022/05/11 09:41:18;;;;;;;4.50;2.38;;;29.00;88.70;;;;;;7389632;19;20525;-78
2022/05/11 09:43:55;;;;;;;3.17;2.88;;;29.10;88.00;;;;;;7389146;19;20130;-75
2022/05/11 09:46:34;;;;;;;4.20;2.58;;;29.00;88.20;;;;;;7386130;19;20143;-74
2022/05/11 09:49:24;;;;;;;4.10;2.35;;;29.00;88.70;;;;;;7385622;19;20162;-74
2022/05/11 09:51:50;;;;;;;3.13;2.58;;;29.00;89.10;;;;;;7388864;19;20127;-78
2022/05/11 09:54:33;;;;;;;3.25;2.40;;;28.80;89.40;;;;;;7390625;19;20154;-74
2022/05/11 09:57:27;;;;;;;2.60;2.40;;;28.80;88.90;;;;;;7385535;19;20154;-77
2022/05/11 09:59:56;;;;;;;4.15;2.20;;;28.80;88.70;;;;;;7386336;19;20135;-78
2022/05/11 10:02:37;;;;;;;2.80;2.33;;;28.80;89.40;;;;;;7387270;19;20156;-77
2022/05/11 10:05:14;;;;;;;4.60;2.90;;;28.40;87.70;;;;;;7385372;19;20606;-76
2022/05/11 10:07:58;;;;;;;2.90;2.58;;;28.10;89.30;;;;;;7386516;19;20141;-79
2022/05/11 10:10:46;;;;;;;5.35;2.53;;;28.10;89.70;;;;;;7389655;19;20123;-77
2022/05/11 10:13:26;;;;;;;4.15;2.53;;;28.30;90.10;;;;;;7387577;19;20134;-77
2022/05/11 10:21:50;;;;;;;2.63;2.42;;;28.20;90.30;;;;;;7385649;19;20210;-74
2022/05/11 10:24:24;;;;;;;4.88;2.50;;;28.30;89.60;;;;;;7385653;19;20591;-78
2022/05/11 10:27:03;;;;;;;2.70;2.50;;;28.40;88.60;;;;;;7386396;19;20621;-75
2022/05/11 10:29:39;;;;;;;3.38;3.00;;;28.50;89.20;;;;;;7385620;19;20131;-77
2022/05/11 10:32:19;;;;;;;4.03;2.85;;;28.50;89.40;;;;;;7387613;19;20607;-74
2022/05/11 10:35:11;;;;;;;2.83;2.22;;;28.30;88.60;;;;;;7386789;19;20139;-78
2022/05/11 10:38:12;;;;;;;2.90;2.50;;;28.20;88.90;;;;;;7390710;19;20478;-75
2022/05/11 10:40:57;;;;;;;2.97;2.30;;;28.20;88.50;;;;;;7386899;19;20130;-79
2022/05/11 10:44:00;;;;;;;2.30;2.10;;;28.30;87.00;;;;;;7385347;19;20131;-73
2022/05/11 10:46:38;;;;;;;5.22;2.53;;;28.10;88.10;;;;;;7383357;19;20162;-80
2022/05/11 10:49:16;;;;;;;3.85;2.22;;;28.30;87.40;;;;;;7386509;19;20193;-75
2022/05/11 10:51:49;;;;;;;4.65;2.83;;;28.30;87.30;;;;;;7387289;19;20138;-77
2022/05/11 10:54:38;;;;;;;4.35;2.50;;;28.30;87.00;;;;;;7383868;19;20131;-78
2022/05/11 10:57:39;;;;;;;2.80;2.50;;;28.20;87.20;;;;;;7385756;19;20169;-79
2022/05/11 11:00:13;;;;;;;4.75;2.97;;;28.20;85.80;;;;;;7385774;19;20472;-78
2022/05/11 11:03:15;;;;;;;4.45;2.50;;;28.30;84.70;;;;;;7384845;19;20586;-72
2022/05/11 11:09:29;;;;;;;3.80;2.00;;;28.30;82.40;;;;;;7387264;19;20490;-75
2022/05/11 11:12:06;;;;;;;2.83;2.20;;;28.40;82.70;;;;;;7387571;19;20138;-78
2022/05/11 11:14:37;;;;;;;3.03;2.65;;;28.40;83.40;;;;;;7385518;19;20131;-74
2022/05/11 11:17:06;;;;;;;3.47;2.17;;;28.50;83.80;;;;;;7385210;19;20150;-76
2022/05/11 11:19:34;;;;;;;2.85;2.28;;;28.60;82.60;;;;;;7386008;19;20135;-77
2022/05/11 11:22:01;;;;;;;2.20;2.00;;;28.60;82.90;;;;;;7386383;19;20582;-74
2022/05/11 11:24:29;;;;;;;2.03;1.83;;;28.50;82.00;;;;;;7387567;19;20146;-77
2022/05/11 11:27:00;;;;;;;3.33;2.40;;;28.60;82.30;;;;;;7382503;19;20126;-79
2022/05/11 11:29:35;;;;;;;2.70;2.50;;;28.40;82.80;;;;;;7383176;19;20202;-75
2022/05/11 11:32:13;;;;;;;2.50;2.30;;;28.20;83.10;;;;;;7384763;19;20146;-75
2022/05/11 11:34:45;;;;;;;5.25;2.67;;;28.00;83.60;;;;;;7383094;19;20590;-74
2022/05/11 11:37:32;;;;;;;2.47;2.20;;;27.90;83.80;;;;;;7384087;19;20134;-76
2022/05/11 11:40:23;;;;;;;4.32;2.40;;;27.90;83.30;;;;;;7383352;19;20158;-78
2022/05/11 11:42:50;;;;;;;3.95;3.55;;;27.70;83.20;;;;;;7385957;19;20154;-78
2022/05/11 11:45:29;;;;;;;2.63;2.33;;;27.70;83.70;;;;;;7391244;19;20589;-79
2022/05/11 11:48:16;;;;;;;3.88;2.80;;;27.70;84.20;;;;;;7382230;19;20205;-78
2022/05/11 11:50:54;;;;;;;6.28;3.42;;;28.00;83.80;;;;;;7384384;19;20149;-74
2022/05/11 11:53:40;;;;;;;3.45;2.30;;;28.10;84.70;;;;;;7383253;19;20173;-75
2022/05/11 11:56:24;;;;;;;2.60;2.08;;;28.20;84.10;;;;;;7384895;19;20138;-75
2022/05/11 11:59:09;;;;;;;3.65;2.33;;;28.20;81.80;;;;;;7389981;19;20147;-75
2022/05/11 12:01:40;;;;;;;2.42;1.95;;;28.20;82.00;;;;;;7390854;19;20182;-75
2022/05/11 12:04:34;;;;;;;2.30;2.00;;;28.30;80.70;;;;;;7390897;19;20130;-75
2022/05/11 12:15:34;;;;;;;1.88;1.77;;;28.50;78.30;;;;;;7388829;19;20134;-79
2022/05/11 12:18:02;;;;;;;5.20;2.33;;;28.70;77.60;;;;;;7390480;19;20167;-81
2022/05/11 12:20:43;;;;;;;4.13;2.30;;;28.70;76.30;;;;;;7391182;19;20137;-76
2022/05/11 12:23:20;;;;;;;2.13;1.80;;;28.80;75.60;;;;;;7390258;19;20585;-77
2022/05/11 12:26:00;;;;;;;1.40;1.30;;;28.80;76.10;;;;;;7390706;19;20616;-78
2022/05/11 12:28:36;;;;;;;5.22;2.03;;;28.70;75.20;;;;;;7395952;19;20165;-75
2022/05/11 12:31:03;;;;;;;1.70;1.58;;;28.80;75.50;;;;;;7392331;19;20139;-78
2022/05/11 12:33:33;;;;;;;1.70;1.60;;;28.90;73.60;;;;;;7390927;19;20131;-82
2022/05/11 12:35:59;;;;;;;3.67;1.85;;;28.90;73.70;;;;;;7388278;19;20127;-75
2022/05/11 12:38:31;;;;;;;2.10;1.40;;;28.90;71.80;;;;;;7389351;19;20215;-73
2022/05/11 12:40:59;;;;;;;2.90;1.73;;;28.80;71.50;;;;;;7390361;19;20791;-74
2022/05/11 12:43:34;;;;;;;3.40;1.75;;;28.80;72.80;;;;;;7389663;19;20154;-73
2022/05/11 12:46:03;;;;;;;3.83;1.70;;;28.80;70.00;;;;;;7388941;19;20149;-74
2022/05/11 12:48:39;;;;;;;1.58;1.30;;;28.80;70.20;;;;;;7391914;19;20138;-79
2022/05/11 12:51:16;;;;;;;2.45;1.67;;;28.90;70.60;;;;;;7390238;19;20190;-79
2022/05/11 12:53:54;;;;;;;5.20;1.80;;;29.00;70.30;;;;;;7390964;19;20143;-78
2022/05/11 12:56:24;;;;;;;2.47;1.58;;;29.00;71.30;;;;;;7392082;19;20146;-74
2022/05/11 12:58:59;;;;;;;1.40;1.30;;;28.90;70.40;;;;;;7390870;19;20130;-73
2022/05/11 13:01:29;;;;;;;2.38;1.70;;;28.90;70.20;;;;;;7390270;19;20130;-75
2022/05/11 13:04:01;;;;;;;2.83;1.98;;;28.90;71.90;;;;;;7390452;19;20138;-79
2022/05/11 13:06:35;;;;;;;3.70;1.63;;;29.00;72.00;;;;;;7388954;19;20134;-73
2022/05/11 13:09:15;;;;;;;3.13;1.80;;;29.00;69.90;;;;;;7389110;19;20142;-74
2022/05/11 13:11:43;;;;;;;4.03;1.65;;;28.90;70.70;;;;;;7396877;19;20454;-79
2022/05/11 13:14:17;;;;;;;1.60;1.40;;;28.90;70.00;;;;;;7387739;19;20143;-74
2022/05/11 13:16:53;;;;;;;3.25;1.80;;;28.90;69.30;;;;;;7387353;19;20596;-77
2022/05/11 13:19:22;;;;;;;1.42;1.33;;;29.00;68.40;;;;;;7388304;19;20669;-74
2022/05/11 13:21:48;;;;;;;1.95;1.55;;;28.90;69.10;;;;;;7387989;19;20489;-80
2022/05/11 13:24:46;;;;;;;2.55;1.70;;;28.90;69.20;;;;;;7389303;19;20126;-74
2022/05/11 13:27:41;;;;;;;2.55;1.30;;;29.00;69.40;;;;;;7387285;19;20162;-80
2022/05/11 13:30:33;;;;;;;1.70;1.60;;;28.90;69.00;;;;;;7386051;19;20170;-74
2022/05/11 13:33:03;;;;;;;4.60;1.70;;;28.90;69.40;;;;;;7392469;19;20194;-74
2022/05/11 13:35:34;;;;;;;3.03;1.70;;;28.90;69.60;;;;;;7389297;19;20146;-75
2022/05/11 13:38:03;;;;;;;1.42;1.33;;;28.90;69.90;;;;;;7386869;19;20143;-74
2022/05/11 13:40:39;;;;;;;1.60;1.50;;;28.90;69.70;;;;;;7388444;19;20134;-79
2022/05/11 13:43:20;;;;;;;4.78;1.95;;;29.00;67.90;;;;;;7393058;19;20126;-74
2022/05/11 13:46:03;;;;;;;3.58;1.80;;;29.00;68.70;;;;;;7389763;19;20166;-79
2022/05/11 13:48:38;;;;;;;2.70;1.50;;;29.00;68.70;;;;;;7388810;19;20198;-79
2022/05/11 13:51:06;;;;;;;2.15;1.38;;;28.90;67.60;;;;;;7388588;19;20130;-76
2022/05/11 13:53:33;;;;;;;2.17;1.58;;;29.00;67.50;;;;;;7387073;19;20146;-78